sensor_id;sensor_type;location;lat;lon;timestamp;P1;durP1;ratioP1;P2;durP2;ratioP2
9420;SDS011;4749;51.398;5.466;2023-09-12T00:02:16;49.88;;;28.90;;
9420;SDS011;4749;51.398;5.466;2023-09-12T00:04:43;46.67;;;31.05;;
9420;SDS011;4749;51.398;5.466;2023-09-12T00:07:10;46.90;;;28.60;;
9420;SDS011;4749;51.398;5.466;2023-09-12T00:09:37;43.17;;;28.58;;
9420;SDS011;4749;51.398;5.466;2023-09-12T00:12:05;50.97;;;28.02;;
9420;SDS011;4749;51.398;5.466;2023-09-12T00:14:32;45.00;;;27.65;;
9420;SDS011;4749;51.398;5.466;2023-09-12T00:16:59;44.63;;;28.45;;
9420;SDS011;4749;51.398;5.466;2023-09-12T00:19:27;41.15;;;27.42;;
9420;SDS011;4749;51.398;5.466;2023-09-12T00:21:55;44.75;;;28.17;;
9420;SDS011;4749;51.398;5.466;2023-09-12T00:24:22;39.58;;;28.27;;
9420;SDS011;4749;51.398;5.466;2023-09-12T00:26:49;44.33;;;27.52;;
9420;SDS011;4749;51.398;5.466;2023-09-12T00:29:17;44.55;;;27.27;;
9420;SDS011;4749;51.398;5.466;2023-09-12T00:31:44;45.55;;;27.27;;
9420;SDS011;4749;51.398;5.466;2023-09-12T00:34:15;45.05;;;27.20;;
9420;SDS011;4749;51.398;5.466;2023-09-12T00:36:43;38.65;;;26.20;;
9420;SDS011;4749;51.398;5.466;2023-09-12T00:39:11;50.55;;;28.02;;
9420;SDS011;4749;51.398;5.466;2023-09-12T00:41:38;41.97;;;26.00;;
9420;SDS011;4749;51.398;5.466;2023-09-12T00:44:05;49.88;;;27.73;;
9420;SDS011;4749;51.398;5.466;2023-09-12T00:46:33;40.42;;;26.33;;
9420;SDS011;4749;51.398;5.466;2023-09-12T00:49:02;37.20;;;24.73;;
9420;SDS011;4749;51.398;5.466;2023-09-12T00:51:33;40.88;;;26.05;;
9420;SDS011;4749;51.398;5.466;2023-09-12T00:54:01;40.38;;;25.75;;
9420;SDS011;4749;51.398;5.466;2023-09-12T00:56:29;39.67;;;24.83;;
9420;SDS011;4749;51.398;5.466;2023-09-12T00:58:56;43.08;;;25.92;;
9420;SDS011;4749;51.398;5.466;2023-09-12T01:01:24;39.28;;;24.92;;
9420;SDS011;4749;51.398;5.466;2023-09-12T01:03:52;42.13;;;26.98;;
9420;SDS011;4749;51.398;5.466;2023-09-12T01:06:21;42.35;;;26.20;;
9420;SDS011;4749;51.398;5.466;2023-09-12T01:08:56;39.08;;;25.33;;
9420;SDS011;4749;51.398;5.466;2023-09-12T01:11:23;45.55;;;25.60;;
9420;SDS011;4749;51.398;5.466;2023-09-12T01:13:51;40.35;;;24.80;;
9420;SDS011;4749;51.398;5.466;2023-09-12T01:16:18;41.55;;;25.60;;
9420;SDS011;4749;51.398;5.466;2023-09-12T01:18:46;39.25;;;24.48;;
9420;SDS011;4749;51.398;5.466;2023-09-12T01:24:17;40.38;;;26.52;;
9420;SDS011;4749;51.398;5.466;2023-09-12T01:29:57;39.20;;;25.75;;
9420;SDS011;4749;51.398;5.466;2023-09-12T01:32:27;48.80;;;28.35;;
9420;SDS011;4749;51.398;5.466;2023-09-12T01:34:57;45.08;;;27.35;;
9420;SDS011;4749;51.398;5.466;2023-09-12T01:37:24;45.63;;;26.80;;
9420;SDS011;4749;51.398;5.466;2023-09-12T01:39:53;37.28;;;24.17;;
9420;SDS011;4749;51.398;5.466;2023-09-12T01:42:20;46.95;;;27.25;;
9420;SDS011;4749;51.398;5.466;2023-09-12T01:44:49;42.70;;;26.48;;
9420;SDS011;4749;51.398;5.466;2023-09-12T01:47:20;42.85;;;26.45;;
9420;SDS011;4749;51.398;5.466;2023-09-12T01:49:50;45.28;;;25.80;;
9420;SDS011;4749;51.398;5.466;2023-09-12T01:52:21;48.70;;;27.58;;
9420;SDS011;4749;51.398;5.466;2023-09-12T01:54:49;44.72;;;26.77;;
9420;SDS011;4749;51.398;5.466;2023-09-12T01:57:18;47.78;;;26.95;;
9420;SDS011;4749;51.398;5.466;2023-09-12T01:59:48;44.65;;;26.42;;
9420;SDS011;4749;51.398;5.466;2023-09-12T02:02:16;41.95;;;24.67;;
9420;SDS011;4749;51.398;5.466;2023-09-12T02:04:46;46.83;;;27.25;;
9420;SDS011;4749;51.398;5.466;2023-09-12T02:07:38;39.63;;;25.42;;
9420;SDS011;4749;51.398;5.466;2023-09-12T02:10:08;41.28;;;25.10;;
9420;SDS011;4749;51.398;5.466;2023-09-12T02:12:38;39.38;;;23.95;;
9420;SDS011;4749;51.398;5.466;2023-09-12T02:15:06;44.22;;;25.85;;
9420;SDS011;4749;51.398;5.466;2023-09-12T02:17:34;40.53;;;25.50;;
9420;SDS011;4749;51.398;5.466;2023-09-12T02:20:02;39.28;;;23.80;;
9420;SDS011;4749;51.398;5.466;2023-09-12T02:22:33;45.03;;;25.63;;
9420;SDS011;4749;51.398;5.466;2023-09-12T02:25:00;43.80;;;25.17;;
9420;SDS011;4749;51.398;5.466;2023-09-12T02:27:29;40.00;;;23.80;;
9420;SDS011;4749;51.398;5.466;2023-09-12T02:29:56;39.08;;;23.10;;
9420;SDS011;4749;51.398;5.466;2023-09-12T02:32:23;37.28;;;22.63;;
9420;SDS011;4749;51.398;5.466;2023-09-12T02:34:50;44.42;;;24.67;;
9420;SDS011;4749;51.398;5.466;2023-09-12T02:37:19;44.30;;;25.48;;
9420;SDS011;4749;51.398;5.466;2023-09-12T02:39:46;36.08;;;23.02;;
9420;SDS011;4749;51.398;5.466;2023-09-12T02:42:14;37.88;;;22.50;;
9420;SDS011;4749;51.398;5.466;2023-09-12T02:44:41;48.75;;;27.00;;
9420;SDS011;4749;51.398;5.466;2023-09-12T02:47:08;38.92;;;24.05;;
9420;SDS011;4749;51.398;5.466;2023-09-12T02:49:35;39.40;;;25.52;;
9420;SDS011;4749;51.398;5.466;2023-09-12T02:52:03;36.47;;;23.67;;
9420;SDS011;4749;51.398;5.466;2023-09-12T02:54:30;42.55;;;26.23;;
9420;SDS011;4749;51.398;5.466;2023-09-12T02:56:58;37.30;;;22.83;;
9420;SDS011;4749;51.398;5.466;2023-09-12T02:59:25;42.03;;;25.25;;
9420;SDS011;4749;51.398;5.466;2023-09-12T03:01:52;40.80;;;23.35;;
9420;SDS011;4749;51.398;5.466;2023-09-12T03:04:19;39.78;;;22.83;;
9420;SDS011;4749;51.398;5.466;2023-09-12T03:06:46;41.22;;;23.90;;
9420;SDS011;4749;51.398;5.466;2023-09-12T03:09:13;37.53;;;23.83;;
9420;SDS011;4749;51.398;5.466;2023-09-12T03:11:43;39.92;;;23.35;;
9420;SDS011;4749;51.398;5.466;2023-09-12T03:14:10;39.38;;;23.90;;
9420;SDS011;4749;51.398;5.466;2023-09-12T03:16:37;38.15;;;23.42;;
9420;SDS011;4749;51.398;5.466;2023-09-12T03:19:05;44.63;;;24.23;;
9420;SDS011;4749;51.398;5.466;2023-09-12T03:21:32;35.60;;;22.25;;
9420;SDS011;4749;51.398;5.466;2023-09-12T03:23:59;45.00;;;23.42;;
9420;SDS011;4749;51.398;5.466;2023-09-12T03:26:26;41.85;;;25.02;;
9420;SDS011;4749;51.398;5.466;2023-09-12T03:28:53;37.40;;;21.70;;
9420;SDS011;4749;51.398;5.466;2023-09-12T03:31:20;45.70;;;23.80;;
9420;SDS011;4749;51.398;5.466;2023-09-12T03:33:48;39.28;;;24.30;;
9420;SDS011;4749;51.398;5.466;2023-09-12T03:36:17;44.38;;;23.85;;
9420;SDS011;4749;51.398;5.466;2023-09-12T03:38:44;36.67;;;22.83;;
9420;SDS011;4749;51.398;5.466;2023-09-12T03:41:11;36.85;;;22.05;;
9420;SDS011;4749;51.398;5.466;2023-09-12T03:43:39;46.55;;;22.05;;
9420;SDS011;4749;51.398;5.466;2023-09-12T03:46:06;35.00;;;22.17;;
9420;SDS011;4749;51.398;5.466;2023-09-12T03:48:33;35.17;;;22.23;;
9420;SDS011;4749;51.398;5.466;2023-09-12T03:51:03;34.50;;;22.70;;
9420;SDS011;4749;51.398;5.466;2023-09-12T03:53:30;36.67;;;22.15;;
9420;SDS011;4749;51.398;5.466;2023-09-12T03:55:57;38.88;;;25.10;;
9420;SDS011;4749;51.398;5.466;2023-09-12T03:58:25;38.17;;;24.52;;
9420;SDS011;4749;51.398;5.466;2023-09-12T04:00:53;36.13;;;23.52;;
9420;SDS011;4749;51.398;5.466;2023-09-12T04:03:20;41.55;;;23.98;;
9420;SDS011;4749;51.398;5.466;2023-09-12T04:05:49;40.00;;;24.33;;
9420;SDS011;4749;51.398;5.466;2023-09-12T04:08:17;32.83;;;22.60;;
9420;SDS011;4749;51.398;5.466;2023-09-12T04:10:44;35.20;;;22.92;;
9420;SDS011;4749;51.398;5.466;2023-09-12T04:13:11;38.47;;;23.20;;
9420;SDS011;4749;51.398;5.466;2023-09-12T04:15:38;37.67;;;23.08;;
9420;SDS011;4749;51.398;5.466;2023-09-12T04:18:06;37.20;;;24.73;;
9420;SDS011;4749;51.398;5.466;2023-09-12T04:20:33;39.65;;;24.83;;
9420;SDS011;4749;51.398;5.466;2023-09-12T04:23:01;37.92;;;23.67;;
9420;SDS011;4749;51.398;5.466;2023-09-12T04:25:31;39.88;;;24.88;;
9420;SDS011;4749;51.398;5.466;2023-09-12T04:27:59;38.90;;;24.33;;
9420;SDS011;4749;51.398;5.466;2023-09-12T04:30:26;36.30;;;23.25;;
9420;SDS011;4749;51.398;5.466;2023-09-12T04:32:53;40.25;;;23.60;;
9420;SDS011;4749;51.398;5.466;2023-09-12T04:35:20;39.88;;;25.30;;
9420;SDS011;4749;51.398;5.466;2023-09-12T04:37:49;45.35;;;26.35;;
9420;SDS011;4749;51.398;5.466;2023-09-12T04:40:16;39.80;;;25.92;;
9420;SDS011;4749;51.398;5.466;2023-09-12T04:42:44;45.03;;;27.65;;
9420;SDS011;4749;51.398;5.466;2023-09-12T04:45:11;45.47;;;28.23;;
9420;SDS011;4749;51.398;5.466;2023-09-12T04:47:38;48.90;;;29.13;;
9420;SDS011;4749;51.398;5.466;2023-09-12T04:50:05;47.28;;;28.85;;
9420;SDS011;4749;51.398;5.466;2023-09-12T04:52:32;45.38;;;27.48;;
9420;SDS011;4749;51.398;5.466;2023-09-12T04:55:00;54.33;;;29.85;;
9420;SDS011;4749;51.398;5.466;2023-09-12T04:57:28;48.85;;;29.15;;
9420;SDS011;4749;51.398;5.466;2023-09-12T04:59:57;44.80;;;28.67;;
9420;SDS011;4749;51.398;5.466;2023-09-12T05:02:24;49.30;;;27.67;;
9420;SDS011;4749;51.398;5.466;2023-09-12T05:04:52;45.30;;;28.35;;
9420;SDS011;4749;51.398;5.466;2023-09-12T05:07:19;44.92;;;28.63;;
9420;SDS011;4749;51.398;5.466;2023-09-12T05:09:46;41.70;;;25.40;;
9420;SDS011;4749;51.398;5.466;2023-09-12T05:12:14;43.97;;;28.10;;
9420;SDS011;4749;51.398;5.466;2023-09-12T05:14:41;45.35;;;28.75;;
9420;SDS011;4749;51.398;5.466;2023-09-12T05:17:08;46.70;;;28.35;;
9420;SDS011;4749;51.398;5.466;2023-09-12T05:19:35;42.08;;;26.85;;
9420;SDS011;4749;51.398;5.466;2023-09-12T05:22:02;49.53;;;27.88;;
9420;SDS011;4749;51.398;5.466;2023-09-12T05:24:30;46.10;;;28.08;;
9420;SDS011;4749;51.398;5.466;2023-09-12T05:26:57;44.05;;;28.05;;
9420;SDS011;4749;51.398;5.466;2023-09-12T05:29:24;43.03;;;27.48;;
9420;SDS011;4749;51.398;5.466;2023-09-12T05:31:51;48.63;;;28.15;;
9420;SDS011;4749;51.398;5.466;2023-09-12T05:34:18;44.00;;;26.92;;
9420;SDS011;4749;51.398;5.466;2023-09-12T05:36:46;46.35;;;29.10;;
9420;SDS011;4749;51.398;5.466;2023-09-12T05:39:16;45.78;;;29.02;;
9420;SDS011;4749;51.398;5.466;2023-09-12T05:41:43;47.00;;;29.25;;
9420;SDS011;4749;51.398;5.466;2023-09-12T05:44:10;49.65;;;29.88;;
9420;SDS011;4749;51.398;5.466;2023-09-12T05:46:47;41.72;;;28.08;;
9420;SDS011;4749;51.398;5.466;2023-09-12T05:49:15;46.65;;;28.13;;
9420;SDS011;4749;51.398;5.466;2023-09-12T05:51:42;44.47;;;27.80;;
9420;SDS011;4749;51.398;5.466;2023-09-12T05:54:09;43.80;;;27.92;;
9420;SDS011;4749;51.398;5.466;2023-09-12T05:56:37;49.38;;;27.33;;
9420;SDS011;4749;51.398;5.466;2023-09-12T05:59:05;47.92;;;28.70;;
9420;SDS011;4749;51.398;5.466;2023-09-12T06:01:33;45.92;;;28.02;;
9420;SDS011;4749;51.398;5.466;2023-09-12T06:04:00;45.83;;;27.88;;
9420;SDS011;4749;51.398;5.466;2023-09-12T06:06:28;45.33;;;27.27;;
9420;SDS011;4749;51.398;5.466;2023-09-12T06:08:55;44.83;;;27.85;;
9420;SDS011;4749;51.398;5.466;2023-09-12T06:11:24;45.53;;;26.85;;
9420;SDS011;4749;51.398;5.466;2023-09-12T06:13:51;41.75;;;27.65;;
9420;SDS011;4749;51.398;5.466;2023-09-12T06:16:18;46.67;;;28.38;;
9420;SDS011;4749;51.398;5.466;2023-09-12T06:18:46;53.67;;;28.55;;
9420;SDS011;4749;51.398;5.466;2023-09-12T06:21:14;42.65;;;26.73;;
9420;SDS011;4749;51.398;5.466;2023-09-12T06:23:42;45.75;;;27.98;;
9420;SDS011;4749;51.398;5.466;2023-09-12T06:26:09;49.78;;;30.10;;
9420;SDS011;4749;51.398;5.466;2023-09-12T06:28:36;52.53;;;30.42;;
9420;SDS011;4749;51.398;5.466;2023-09-12T06:31:03;47.90;;;29.02;;
9420;SDS011;4749;51.398;5.466;2023-09-12T06:33:36;47.63;;;28.70;;
9420;SDS011;4749;51.398;5.466;2023-09-12T06:36:04;43.15;;;27.73;;
9420;SDS011;4749;51.398;5.466;2023-09-12T06:38:31;46.30;;;27.15;;
9420;SDS011;4749;51.398;5.466;2023-09-12T06:40:58;42.38;;;27.10;;
9420;SDS011;4749;51.398;5.466;2023-09-12T06:43:26;50.22;;;29.45;;
9420;SDS011;4749;51.398;5.466;2023-09-12T06:45:53;49.25;;;30.15;;
9420;SDS011;4749;51.398;5.466;2023-09-12T06:48:20;51.63;;;29.40;;
9420;SDS011;4749;51.398;5.466;2023-09-12T06:50:47;48.28;;;29.67;;
9420;SDS011;4749;51.398;5.466;2023-09-12T06:53:19;43.20;;;28.25;;
9420;SDS011;4749;51.398;5.466;2023-09-12T06:55:46;46.30;;;28.38;;
9420;SDS011;4749;51.398;5.466;2023-09-12T06:58:14;40.75;;;27.13;;
9420;SDS011;4749;51.398;5.466;2023-09-12T07:00:41;44.58;;;28.48;;
9420;SDS011;4749;51.398;5.466;2023-09-12T07:03:08;40.78;;;27.40;;
9420;SDS011;4749;51.398;5.466;2023-09-12T07:05:41;43.38;;;27.27;;
9420;SDS011;4749;51.398;5.466;2023-09-12T07:08:08;38.20;;;26.08;;
9420;SDS011;4749;51.398;5.466;2023-09-12T07:10:37;39.72;;;27.48;;
9420;SDS011;4749;51.398;5.466;2023-09-12T07:13:09;41.00;;;26.30;;
9420;SDS011;4749;51.398;5.466;2023-09-12T07:15:36;41.35;;;27.85;;
9420;SDS011;4749;51.398;5.466;2023-09-12T07:18:04;37.17;;;27.98;;
9420;SDS011;4749;51.398;5.466;2023-09-12T07:20:35;41.90;;;27.25;;
9420;SDS011;4749;51.398;5.466;2023-09-12T07:23:02;34.67;;;24.90;;
9420;SDS011;4749;51.398;5.466;2023-09-12T07:25:29;34.17;;;25.15;;
9420;SDS011;4749;51.398;5.466;2023-09-12T07:27:57;32.28;;;24.15;;
9420;SDS011;4749;51.398;5.466;2023-09-12T07:30:24;35.97;;;25.38;;
9420;SDS011;4749;51.398;5.466;2023-09-12T07:32:51;31.95;;;23.65;;
9420;SDS011;4749;51.398;5.466;2023-09-12T07:35:18;29.15;;;22.63;;
9420;SDS011;4749;51.398;5.466;2023-09-12T07:37:47;32.58;;;23.95;;
9420;SDS011;4749;51.398;5.466;2023-09-12T07:40:14;36.88;;;25.63;;
9420;SDS011;4749;51.398;5.466;2023-09-12T07:42:41;31.33;;;21.77;;
9420;SDS011;4749;51.398;5.466;2023-09-12T07:45:08;30.35;;;21.27;;
9420;SDS011;4749;51.398;5.466;2023-09-12T07:47:36;28.00;;;21.33;;
9420;SDS011;4749;51.398;5.466;2023-09-12T07:50:03;32.25;;;22.75;;
9420;SDS011;4749;51.398;5.466;2023-09-12T07:52:33;37.50;;;25.40;;
9420;SDS011;4749;51.398;5.466;2023-09-12T07:55:03;34.83;;;24.70;;
9420;SDS011;4749;51.398;5.466;2023-09-12T07:57:31;31.65;;;21.85;;
9420;SDS011;4749;51.398;5.466;2023-09-12T08:00:00;30.73;;;22.85;;
9420;SDS011;4749;51.398;5.466;2023-09-12T08:02:30;29.30;;;21.55;;
9420;SDS011;4749;51.398;5.466;2023-09-12T08:04:58;28.65;;;21.85;;
9420;SDS011;4749;51.398;5.466;2023-09-12T08:07:25;31.20;;;22.75;;
9420;SDS011;4749;51.398;5.466;2023-09-12T08:09:53;30.23;;;22.42;;
9420;SDS011;4749;51.398;5.466;2023-09-12T08:12:26;27.85;;;20.88;;
9420;SDS011;4749;51.398;5.466;2023-09-12T08:14:55;29.83;;;21.83;;
9420;SDS011;4749;51.398;5.466;2023-09-12T08:17:22;27.23;;;21.48;;
9420;SDS011;4749;51.398;5.466;2023-09-12T08:19:50;24.92;;;19.33;;
9420;SDS011;4749;51.398;5.466;2023-09-12T08:22:17;25.17;;;17.90;;
9420;SDS011;4749;51.398;5.466;2023-09-12T08:24:45;24.42;;;17.80;;
9420;SDS011;4749;51.398;5.466;2023-09-12T08:27:12;24.33;;;19.73;;
9420;SDS011;4749;51.398;5.466;2023-09-12T08:29:40;25.17;;;19.95;;
9420;SDS011;4749;51.398;5.466;2023-09-12T08:32:08;19.30;;;16.08;;
9420;SDS011;4749;51.398;5.466;2023-09-12T08:34:35;15.20;;;12.63;;
9420;SDS011;4749;51.398;5.466;2023-09-12T08:37:02;20.38;;;14.25;;
9420;SDS011;4749;51.398;5.466;2023-09-12T08:39:39;18.00;;;14.68;;
9420;SDS011;4749;51.398;5.466;2023-09-12T08:42:13;20.08;;;14.02;;
9420;SDS011;4749;51.398;5.466;2023-09-12T08:44:42;18.25;;;13.48;;
9420;SDS011;4749;51.398;5.466;2023-09-12T08:47:10;16.35;;;12.23;;
9420;SDS011;4749;51.398;5.466;2023-09-12T08:49:39;15.18;;;11.48;;
9420;SDS011;4749;51.398;5.466;2023-09-12T08:52:09;13.80;;;10.77;;
9420;SDS011;4749;51.398;5.466;2023-09-12T08:54:37;11.75;;;10.38;;
9420;SDS011;4749;51.398;5.466;2023-09-12T08:57:07;12.68;;;10.23;;
9420;SDS011;4749;51.398;5.466;2023-09-12T08:59:37;13.02;;;8.90;;
9420;SDS011;4749;51.398;5.466;2023-09-12T09:02:05;9.82;;;8.82;;
9420;SDS011;4749;51.398;5.466;2023-09-12T09:04:35;13.20;;;9.60;;
9420;SDS011;4749;51.398;5.466;2023-09-12T09:07:04;11.00;;;9.40;;
9420;SDS011;4749;51.398;5.466;2023-09-12T09:09:32;13.00;;;9.25;;
9420;SDS011;4749;51.398;5.466;2023-09-12T09:12:00;8.25;;;7.15;;
9420;SDS011;4749;51.398;5.466;2023-09-12T09:14:29;7.78;;;5.32;;
9420;SDS011;4749;51.398;5.466;2023-09-12T09:16:57;7.30;;;6.13;;
9420;SDS011;4749;51.398;5.466;2023-09-12T09:19:39;7.13;;;5.90;;
9420;SDS011;4749;51.398;5.466;2023-09-12T09:22:08;7.20;;;5.95;;
9420;SDS011;4749;51.398;5.466;2023-09-12T09:24:36;9.55;;;6.35;;
9420;SDS011;4749;51.398;5.466;2023-09-12T09:27:03;8.18;;;6.75;;
9420;SDS011;4749;51.398;5.466;2023-09-12T09:29:30;8.98;;;7.47;;
9420;SDS011;4749;51.398;5.466;2023-09-12T09:32:00;11.27;;;8.02;;
9420;SDS011;4749;51.398;5.466;2023-09-12T09:34:28;9.43;;;7.38;;
9420;SDS011;4749;51.398;5.466;2023-09-12T09:36:56;10.00;;;7.47;;
9420;SDS011;4749;51.398;5.466;2023-09-12T09:39:25;9.20;;;7.82;;
9420;SDS011;4749;51.398;5.466;2023-09-12T09:41:56;8.95;;;7.70;;
9420;SDS011;4749;51.398;5.466;2023-09-12T09:44:24;10.57;;;7.90;;
9420;SDS011;4749;51.398;5.466;2023-09-12T09:47:00;11.65;;;7.60;;
9420;SDS011;4749;51.398;5.466;2023-09-12T09:49:32;15.02;;;11.32;;
9420;SDS011;4749;51.398;5.466;2023-09-12T09:52:03;13.73;;;11.00;;
9420;SDS011;4749;51.398;5.466;2023-09-12T09:54:31;14.68;;;12.40;;
9420;SDS011;4749;51.398;5.466;2023-09-12T09:56:59;15.13;;;12.13;;
9420;SDS011;4749;51.398;5.466;2023-09-12T09:59:27;17.40;;;13.07;;
9420;SDS011;4749;51.398;5.466;2023-09-12T10:01:58;18.92;;;13.55;;
9420;SDS011;4749;51.398;5.466;2023-09-12T10:04:27;16.58;;;13.60;;
9420;SDS011;4749;51.398;5.466;2023-09-12T10:06:56;26.00;;;16.10;;
9420;SDS011;4749;51.398;5.466;2023-09-12T10:09:28;19.77;;;15.52;;
9420;SDS011;4749;51.398;5.466;2023-09-12T10:12:07;19.95;;;15.52;;
9420;SDS011;4749;51.398;5.466;2023-09-12T10:14:35;18.83;;;15.50;;
9420;SDS011;4749;51.398;5.466;2023-09-12T10:17:06;18.27;;;14.50;;
9420;SDS011;4749;51.398;5.466;2023-09-12T10:19:35;21.60;;;15.43;;
9420;SDS011;4749;51.398;5.466;2023-09-12T10:22:09;19.55;;;14.98;;
9420;SDS011;4749;51.398;5.466;2023-09-12T10:24:49;20.98;;;15.18;;
9420;SDS011;4749;51.398;5.466;2023-09-12T10:27:18;21.92;;;16.67;;
9420;SDS011;4749;51.398;5.466;2023-09-12T10:29:46;21.95;;;16.05;;
9420;SDS011;4749;51.398;5.466;2023-09-12T10:32:16;18.15;;;15.63;;
9420;SDS011;4749;51.398;5.466;2023-09-12T10:34:45;18.63;;;12.73;;
9420;SDS011;4749;51.398;5.466;2023-09-12T10:37:15;13.95;;;10.18;;
9420;SDS011;4749;51.398;5.466;2023-09-12T10:39:43;16.67;;;11.85;;
9420;SDS011;4749;51.398;5.466;2023-09-12T10:42:12;19.48;;;15.10;;
9420;SDS011;4749;51.398;5.466;2023-09-12T10:44:41;20.90;;;16.83;;
9420;SDS011;4749;51.398;5.466;2023-09-12T10:47:13;23.40;;;16.70;;
9420;SDS011;4749;51.398;5.466;2023-09-12T10:49:43;24.80;;;17.60;;
9420;SDS011;4749;51.398;5.466;2023-09-12T10:52:23;20.45;;;15.80;;
9420;SDS011;4749;51.398;5.466;2023-09-12T10:54:54;17.98;;;15.00;;
9420;SDS011;4749;51.398;5.466;2023-09-12T10:57:23;17.13;;;11.98;;
9420;SDS011;4749;51.398;5.466;2023-09-12T11:00:24;22.88;;;17.75;;
9420;SDS011;4749;51.398;5.466;2023-09-12T11:02:44;23.30;;;18.10;;
9420;SDS011;4749;51.398;5.466;2023-09-12T11:07:57;22.08;;;17.77;;
9420;SDS011;4749;51.398;5.466;2023-09-12T11:10:26;19.48;;;16.27;;
9420;SDS011;4749;51.398;5.466;2023-09-12T11:12:55;20.23;;;15.63;;
9420;SDS011;4749;51.398;5.466;2023-09-12T11:15:24;20.67;;;16.52;;
9420;SDS011;4749;51.398;5.466;2023-09-12T11:18:01;20.88;;;16.85;;
9420;SDS011;4749;51.398;5.466;2023-09-12T11:23:35;23.92;;;19.30;;
9420;SDS011;4749;51.398;5.466;2023-09-12T11:26:04;24.80;;;19.85;;
9420;SDS011;4749;51.398;5.466;2023-09-12T11:28:32;25.05;;;18.88;;
9420;SDS011;4749;51.398;5.466;2023-09-12T11:31:00;22.40;;;17.27;;
9420;SDS011;4749;51.398;5.466;2023-09-12T11:33:27;22.05;;;17.08;;
9420;SDS011;4749;51.398;5.466;2023-09-12T11:35:56;24.92;;;17.35;;
9420;SDS011;4749;51.398;5.466;2023-09-12T11:38:28;21.40;;;15.38;;
9420;SDS011;4749;51.398;5.466;2023-09-12T11:40:57;21.00;;;16.70;;
9420;SDS011;4749;51.398;5.466;2023-09-12T11:43:26;22.35;;;15.80;;
9420;SDS011;4749;51.398;5.466;2023-09-12T11:45:55;20.83;;;15.70;;
9420;SDS011;4749;51.398;5.466;2023-09-12T11:48:24;19.38;;;15.40;;
9420;SDS011;4749;51.398;5.466;2023-09-12T11:50:55;19.55;;;15.00;;
9420;SDS011;4749;51.398;5.466;2023-09-12T11:53:24;20.40;;;15.32;;
9420;SDS011;4749;51.398;5.466;2023-09-12T11:55:58;21.05;;;14.45;;
9420;SDS011;4749;51.398;5.466;2023-09-12T11:58:27;18.63;;;16.17;;
9420;SDS011;4749;51.398;5.466;2023-09-12T12:00:55;22.80;;;18.85;;
9420;SDS011;4749;51.398;5.466;2023-09-12T12:03:26;25.30;;;18.58;;
9420;SDS011;4749;51.398;5.466;2023-09-12T12:05:55;19.27;;;16.38;;
9420;SDS011;4749;51.398;5.466;2023-09-12T12:08:23;19.55;;;14.20;;
9420;SDS011;4749;51.398;5.466;2023-09-12T12:10:54;19.05;;;15.80;;
9420;SDS011;4749;51.398;5.466;2023-09-12T12:13:25;19.73;;;14.73;;
9420;SDS011;4749;51.398;5.466;2023-09-12T12:15:55;18.50;;;15.60;;
9420;SDS011;4749;51.398;5.466;2023-09-12T12:18:23;20.55;;;14.98;;
9420;SDS011;4749;51.398;5.466;2023-09-12T12:20:51;17.15;;;13.65;;
9420;SDS011;4749;51.398;5.466;2023-09-12T12:23:18;17.17;;;14.20;;
9420;SDS011;4749;51.398;5.466;2023-09-12T12:25:45;19.15;;;13.93;;
9420;SDS011;4749;51.398;5.466;2023-09-12T12:28:13;17.08;;;14.63;;
9420;SDS011;4749;51.398;5.466;2023-09-12T12:30:43;18.02;;;14.45;;
9420;SDS011;4749;51.398;5.466;2023-09-12T12:33:10;17.13;;;13.85;;
9420;SDS011;4749;51.398;5.466;2023-09-12T12:36:04;18.45;;;14.38;;
9420;SDS011;4749;51.398;5.466;2023-09-12T12:38:35;16.60;;;13.38;;
9420;SDS011;4749;51.398;5.466;2023-09-12T12:41:27;17.08;;;14.23;;
9420;SDS011;4749;51.398;5.466;2023-09-12T12:44:14;15.93;;;13.43;;
9420;SDS011;4749;51.398;5.466;2023-09-12T12:46:49;13.57;;;11.52;;
9420;SDS011;4749;51.398;5.466;2023-09-12T12:49:20;17.25;;;13.75;;
9420;SDS011;4749;51.398;5.466;2023-09-12T12:51:49;20.42;;;14.80;;
9420;SDS011;4749;51.398;5.466;2023-09-12T12:54:17;15.68;;;12.88;;
9420;SDS011;4749;51.398;5.466;2023-09-12T12:56:49;16.17;;;12.18;;
9420;SDS011;4749;51.398;5.466;2023-09-12T12:59:16;18.27;;;14.02;;
9420;SDS011;4749;51.398;5.466;2023-09-12T13:01:44;14.55;;;11.88;;
9420;SDS011;4749;51.398;5.466;2023-09-12T13:04:11;14.35;;;10.98;;
9420;SDS011;4749;51.398;5.466;2023-09-12T13:06:38;15.43;;;11.60;;
9420;SDS011;4749;51.398;5.466;2023-09-12T13:09:07;11.88;;;10.55;;
9420;SDS011;4749;51.398;5.466;2023-09-12T13:11:35;12.77;;;11.25;;
9420;SDS011;4749;51.398;5.466;2023-09-12T13:14:03;14.73;;;10.90;;
9420;SDS011;4749;51.398;5.466;2023-09-12T13:16:38;15.75;;;11.15;;
9420;SDS011;4749;51.398;5.466;2023-09-12T13:19:08;13.30;;;8.95;;
9420;SDS011;4749;51.398;5.466;2023-09-12T13:21:37;14.50;;;11.07;;
9420;SDS011;4749;51.398;5.466;2023-09-12T13:24:05;11.57;;;10.38;;
9420;SDS011;4749;51.398;5.466;2023-09-12T13:26:33;15.18;;;12.52;;
9420;SDS011;4749;51.398;5.466;2023-09-12T13:29:00;14.52;;;10.80;;
9420;SDS011;4749;51.398;5.466;2023-09-12T13:31:27;13.55;;;10.85;;
9420;SDS011;4749;51.398;5.466;2023-09-12T13:33:54;13.93;;;11.05;;
9420;SDS011;4749;51.398;5.466;2023-09-12T13:36:22;13.40;;;11.50;;
9420;SDS011;4749;51.398;5.466;2023-09-12T13:38:50;10.75;;;9.60;;
9420;SDS011;4749;51.398;5.466;2023-09-12T13:41:18;9.65;;;8.60;;
9420;SDS011;4749;51.398;5.466;2023-09-12T13:43:45;11.38;;;9.43;;
9420;SDS011;4749;51.398;5.466;2023-09-12T13:46:13;12.30;;;8.43;;
9420;SDS011;4749;51.398;5.466;2023-09-12T13:48:43;10.38;;;7.93;;
9420;SDS011;4749;51.398;5.466;2023-09-12T13:51:12;8.80;;;7.90;;
9420;SDS011;4749;51.398;5.466;2023-09-12T13:53:39;8.80;;;7.90;;
9420;SDS011;4749;51.398;5.466;2023-09-12T13:56:07;9.98;;;7.40;;
9420;SDS011;4749;51.398;5.466;2023-09-12T13:58:34;12.40;;;9.80;;
9420;SDS011;4749;51.398;5.466;2023-09-12T14:01:08;14.35;;;8.75;;
9420;SDS011;4749;51.398;5.466;2023-09-12T14:03:38;9.60;;;7.90;;
9420;SDS011;4749;51.398;5.466;2023-09-12T14:06:06;11.00;;;8.13;;
9420;SDS011;4749;51.398;5.466;2023-09-12T14:08:34;10.57;;;7.80;;
9420;SDS011;4749;51.398;5.466;2023-09-12T14:11:02;9.57;;;7.40;;
9420;SDS011;4749;51.398;5.466;2023-09-12T14:13:30;10.70;;;7.72;;
9420;SDS011;4749;51.398;5.466;2023-09-12T14:15:59;8.57;;;6.88;;
9420;SDS011;4749;51.398;5.466;2023-09-12T14:18:27;10.00;;;7.50;;
9420;SDS011;4749;51.398;5.466;2023-09-12T14:20:56;11.77;;;7.63;;
9420;SDS011;4749;51.398;5.466;2023-09-12T14:23:24;9.00;;;7.13;;
9420;SDS011;4749;51.398;5.466;2023-09-12T14:25:52;11.43;;;7.47;;
9420;SDS011;4749;51.398;5.466;2023-09-12T14:28:19;10.45;;;7.90;;
9420;SDS011;4749;51.398;5.466;2023-09-12T14:30:48;8.65;;;7.00;;
9420;SDS011;4749;51.398;5.466;2023-09-12T14:33:16;9.25;;;7.15;;
9420;SDS011;4749;51.398;5.466;2023-09-12T14:35:45;8.32;;;7.35;;
9420;SDS011;4749;51.398;5.466;2023-09-12T14:38:13;9.02;;;7.30;;
9420;SDS011;4749;51.398;5.466;2023-09-12T14:40:40;9.13;;;7.78;;
9420;SDS011;4749;51.398;5.466;2023-09-12T14:43:11;9.68;;;8.68;;
9420;SDS011;4749;51.398;5.466;2023-09-12T14:45:38;13.73;;;8.90;;
9420;SDS011;4749;51.398;5.466;2023-09-12T14:48:06;11.25;;;8.55;;
9420;SDS011;4749;51.398;5.466;2023-09-12T14:50:33;10.82;;;9.43;;
9420;SDS011;4749;51.398;5.466;2023-09-12T14:53:09;12.80;;;9.13;;
9420;SDS011;4749;51.398;5.466;2023-09-12T14:55:38;10.45;;;8.35;;
9420;SDS011;4749;51.398;5.466;2023-09-12T14:58:06;10.20;;;8.38;;
9420;SDS011;4749;51.398;5.466;2023-09-12T15:00:34;10.63;;;7.90;;
9420;SDS011;4749;51.398;5.466;2023-09-12T15:03:02;10.25;;;7.75;;
9420;SDS011;4749;51.398;5.466;2023-09-12T15:05:31;9.27;;;8.30;;
9420;SDS011;4749;51.398;5.466;2023-09-12T15:07:58;9.10;;;7.95;;
9420;SDS011;4749;51.398;5.466;2023-09-12T15:10:25;8.95;;;7.75;;
9420;SDS011;4749;51.398;5.466;2023-09-12T15:12:53;8.63;;;7.20;;